Time;durP1;ratioP1;P1;durP2;ratioP2;P2;SDS_P1;SDS_P2;PMS_P1;PMS_P2;Temp;Humidity;BMP_temperature;BMP_pressure;BME280_temperature;BME280_humidity;BME280_pressure;Samples;Min_cycle;Max_cycle;Signal;HPM_P1;HPM_P2
2022/11/01 00:01:50;;;;;;;108.30;103.80;;;12.30;94.80;;;;;;4858219;29;20085;-74
2022/11/01 00:04:17;;;;;;;104.15;99.82;;;12.30;94.80;;;;;;4874725;29;20438;-74
2022/11/01 00:06:42;;;;;;;;;;;12.30;94.80;;;;;;4875720;29;20144;-75
2022/11/01 00:09:08;;;;;;;102.25;98.05;;;12.30;94.80;;;;;;4873970;29;19999;-74
2022/11/01 00:11:34;;;;;;;101.20;97.00;;;12.30;94.70;;;;;;4874901;29;20555;-74
2022/11/01 00:13:59;;;;;;;103.15;98.85;;;12.30;94.70;;;;;;4874737;29;20115;-75
2022/11/01 00:16:25;;;;;;;99.05;94.95;;;12.30;94.80;;;;;;4858487;29;20040;-75
2022/11/01 00:18:51;;;;;;;98.70;94.60;;;12.30;94.80;;;;;;4859765;29;20059;-75
2022/11/01 00:21:17;;;;;;;100.38;96.28;;;12.30;94.80;;;;;;4858227;29;20388;-74
2022/11/01 00:23:44;;;;;;;98.57;94.53;;;12.30;94.80;;;;;;4858175;29;20041;-74
2022/11/01 00:26:22;;;;;;;96.22;92.30;;;12.30;94.80;;;;;;4874569;29;20116;-75
2022/11/01 00:28:48;;;;;;;96.95;93.00;;;12.30;94.80;;;;;;4874554;29;20040;-74
2022/11/01 00:31:15;;;;;;;;;;;12.30;94.80;;;;;;4858084;29;20084;-75
2022/11/01 00:33:41;;;;;;;95.47;91.63;;;12.30;94.80;;;;;;4857600;29;19911;-75
2022/11/01 00:36:07;;;;;;;94.68;90.88;;;12.30;94.80;;;;;;4857619;29;20044;-75
2022/11/01 00:38:34;;;;;;;91.75;88.05;;;12.20;94.70;;;;;;4874315;29;20029;-74
2022/11/01 00:41:02;;;;;;;90.32;86.65;;;12.20;94.80;;;;;;4874327;29;20072;-74
2022/11/01 00:43:32;;;;;;;89.97;86.38;;;12.10;94.70;;;;;;4874388;29;20049;-75
2022/11/01 00:45:58;;;;;;;88.28;84.78;;;12.10;94.80;;;;;;4858135;29;20394;-74
2022/11/01 00:48:24;;;;;;;;;;;12.00;95.00;;;;;;4874712;29;20041;-74
2022/11/01 00:50:50;;;;;;;84.03;80.72;;;12.00;94.80;;;;;;4874805;29;19912;-75
2022/11/01 00:53:16;;;;;;;86.72;83.32;;;11.90;94.80;;;;;;4874401;29;20081;-75
2022/11/01 00:55:42;;;;;;;85.38;81.97;;;11.90;94.80;;;;;;4874105;29;20029;-74
2022/11/01 00:58:08;;;;;;;83.78;80.47;;;11.80;94.80;;;;;;4841901;29;20160;-75
2022/11/01 01:00:35;;;;;;;83.50;80.20;;;11.70;94.80;;;;;;4874098;29;20044;-74
2022/11/01 01:03:01;;;;;;;78.13;75.05;;;11.70;94.90;;;;;;4874022;29;20033;-74
2022/11/01 01:05:27;;;;;;;78.20;75.10;;;11.70;94.90;;;;;;4857666;29;20040;-74
2022/11/01 01:07:52;;;;;;;77.20;74.20;;;11.60;94.90;;;;;;4872727;29;20034;-74
2022/11/01 01:10:18;;;;;;;76.90;73.90;;;11.60;94.80;;;;;;4873032;29;20060;-74
2022/11/01 01:12:44;;;;;;;74.88;71.97;;;11.60;94.80;;;;;;4857270;29;20037;-75
2022/11/01 01:15:10;;;;;;;73.85;70.95;;;11.50;94.80;;;;;;4872949;29;20089;-76
2022/11/01 01:17:36;;;;;;;74.38;71.47;;;11.50;94.90;;;;;;4872736;29;20112;-75
2022/11/01 01:20:02;;;;;;;71.95;69.15;;;11.50;94.90;;;;;;4857190;29;20040;-76
2022/11/01 01:22:28;;;;;;;69.53;66.82;;;11.50;94.80;;;;;;4872859;29;20045;-76
2022/11/01 01:24:53;;;;;;;68.40;65.80;;;11.50;94.80;;;;;;4874201;29;20033;-75
2022/11/01 01:27:19;;;;;;;67.57;64.97;;;11.40;94.80;;;;;;4873970;29;20085;-76
2022/11/01 01:29:45;;;;;;;66.32;63.75;;;11.40;94.80;;;;;;4856985;29;20501;-75
2022/11/01 01:32:16;;;;;;;64.40;61.90;;;11.30;94.70;;;;;;4872865;29;20041;-75
2022/11/01 01:34:42;;;;;;;63.10;60.70;;;11.30;94.70;;;;;;4873767;29;20029;-75
2022/11/01 01:37:09;;;;;;;62.65;60.25;;;11.20;94.80;;;;;;4873667;29;20025;-75
2022/11/01 01:39:35;;;;;;;61.45;59.05;;;11.10;94.80;;;;;;4856993;29;20057;-76
2022/11/01 01:42:10;;;;;;;59.65;57.35;;;11.10;94.80;;;;;;4873699;29;20033;-75
2022/11/01 01:44:51;;;;;;;60.97;58.58;;;11.10;94.80;;;;;;4873625;29;20133;-74
2022/11/01 01:47:28;;;;;;;59.85;57.55;;;11.00;94.80;;;;;;4873442;29;20033;-74
2022/11/01 01:50:15;;;;;;;59.53;57.22;;;10.90;94.80;;;;;;4873693;29;20029;-74
2022/11/01 01:53:27;;;;;;;61.10;58.70;;;10.90;94.80;;;;;;4873615;29;20108;-73
2022/11/01 01:55:58;;;;;;;58.75;56.45;;;10.80;94.80;;;;;;4815846;29;20031;-73
2022/11/01 01:58:29;;;;;;;59.28;56.97;;;10.80;94.80;;;;;;4815765;29;20264;-73
2022/11/01 02:00:55;;;;;;;58.20;55.90;;;10.70;94.80;;;;;;4846744;29;20033;-73
2022/11/01 02:03:24;;;;;;;56.17;53.97;;;10.70;94.80;;;;;;4873663;29;20451;-73
2022/11/01 02:05:54;;;;;;;58.63;56.33;;;10.70;94.80;;;;;;4873484;29;20111;-73
2022/11/01 02:08:26;;;;;;;57.22;55.03;;;10.60;94.80;;;;;;4872590;29;20029;-73
2022/11/01 02:11:04;;;;;;;55.97;53.78;;;10.50;94.80;;;;;;4872333;29;20025;-73
2022/11/01 02:13:30;;;;;;;54.88;52.78;;;10.50;94.80;;;;;;4873517;29;20489;-73
2022/11/01 02:16:02;;;;;;;57.47;55.28;;;10.50;94.80;;;;;;4873522;29;20212;-74
2022/11/01 02:18:57;;;;;;;56.92;54.72;;;10.40;94.80;;;;;;4873442;29;20041;-75
2022/11/01 02:21:44;;;;;;;54.72;52.63;;;10.40;94.80;;;;;;4852669;29;20101;-75
2022/11/01 02:24:28;;;;;;;54.70;52.60;;;10.30;94.80;;;;;;4856725;29;20032;-73
2022/11/01 02:27:02;;;;;;;53.53;51.42;;;10.30;94.80;;;;;;4874023;29;20085;-78
2022/11/01 02:29:59;;;;;;;52.50;50.50;;;10.30;94.80;;;;;;4873448;29;20029;-78
2022/11/01 02:32:45;;;;;;;52.17;50.17;;;10.20;94.80;;;;;;4857022;29;20486;-77
2022/11/01 02:35:25;;;;;;;52.42;50.42;;;10.20;94.80;;;;;;4876720;29;20049;-77
2022/11/01 02:38:09;;;;;;;52.60;50.60;;;10.20;94.80;;;;;;4876705;29;20029;-73
2022/11/01 02:41:02;;;;;;;51.45;49.45;;;10.10;94.80;;;;;;4877066;29;20048;-73
2022/11/01 02:43:37;;;;;;;52.10;50.10;;;10.20;94.90;;;;;;4876579;29;20113;-73
2022/11/01 02:47:00;;;;;;;50.97;49.03;;;10.20;94.90;;;;;;4859824;29;20032;-73
2022/11/01 02:48:52;;;;;;;50.60;48.70;;;10.20;94.90;;;;;;4876485;29;20033;-73
2022/11/01 02:51:21;;;;;;;48.17;46.38;;;10.20;94.90;;;;;;4859639;29;20443;-73
2022/11/01 02:53:47;;;;;;;49.17;47.28;;;10.20;94.90;;;;;;4876424;29;20033;-73
2022/11/01 02:56:14;;;;;;;48.58;46.78;;;10.30;94.90;;;;;;4876395;29;20032;-73
2022/11/01 02:58:40;;;;;;;46.72;44.92;;;10.40;94.90;;;;;;4876121;29;20572;-74
2022/11/01 03:01:14;;;;;;;45.00;43.30;;;10.40;94.90;;;;;;4876394;29;20037;-75
2022/11/01 03:03:44;;;;;;;45.13;43.42;;;10.50;94.90;;;;;;4859185;29;20041;-75
2022/11/01 03:06:37;;;;;;;43.15;41.55;;;10.60;94.90;;;;;;4859318;29;20112;-78
2022/11/01 03:09:08;;;;;;;42.63;41.03;;;10.60;94.80;;;;;;4876122;29;20049;-77
2022/11/01 03:11:45;;;;;;;42.65;41.05;;;10.70;94.80;;;;;;4859338;29;20116;-78
2022/11/01 03:14:30;;;;;;;41.63;40.03;;;10.70;94.80;;;;;;4875708;29;20036;-77
2022/11/01 03:17:06;;;;;;;38.38;36.90;;;10.70;94.80;;;;;;4875939;29;20190;-77
2022/11/01 03:19:34;;;;;;;40.30;38.80;;;10.80;94.80;;;;;;4876093;29;20077;-78
2022/11/01 03:22:15;;;;;;;40.03;38.53;;;10.70;94.80;;;;;;4875802;29;20036;-77
2022/11/01 03:24:51;;;;;;;40.63;39.13;;;10.80;94.80;;;;;;4858842;29;20032;-77
2022/11/01 03:27:24;;;;;;;38.93;37.43;;;10.80;94.80;;;;;;4858989;29;20036;-78
2022/11/01 03:29:59;;;;;;;38.65;37.15;;;10.80;94.80;;;;;;4875906;29;20265;-75
2022/11/01 03:32:31;;;;;;;40.85;39.33;;;10.80;94.80;;;;;;4875933;29;20029;-75
2022/11/01 03:34:59;;;;;;;39.88;38.38;;;10.80;94.80;;;;;;4875701;29;20033;-75
2022/11/01 03:37:26;;;;;;;40.10;38.60;;;10.80;94.80;;;;;;4875766;29;20219;-75
2022/11/01 03:39:54;;;;;;;39.88;38.38;;;10.80;94.80;;;;;;4843591;29;20379;-75
2022/11/01 03:42:22;;;;;;;39.72;38.22;;;10.80;94.70;;;;;;4875703;29;20447;-75
2022/11/01 03:45:03;;;;;;;39.88;38.38;;;10.80;94.80;;;;;;4858740;29;20505;-75
2022/11/01 03:47:29;;;;;;;36.53;35.13;;;10.80;94.80;;;;;;4875505;29;20056;-75
2022/11/01 03:50:18;;;;;;;39.38;37.88;;;10.80;94.80;;;;;;4875724;29;20105;-75
2022/11/01 03:52:44;;;;;;;36.45;35.05;;;10.80;94.80;;;;;;4875517;29;20029;-75
2022/11/01 03:55:19;;;;;;;;;;;10.80;94.80;;;;;;4875827;29;20033;-75
2022/11/01 03:57:56;;;;;;;38.30;36.85;;;10.80;94.70;;;;;;4844697;29;19912;-76
2022/11/01 04:00:24;;;;;;;35.25;33.95;;;10.70;94.60;;;;;;4875214;29;20390;-75
2022/11/01 04:02:51;;;;;;;32.03;30.83;;;10.70;94.60;;;;;;4857938;29;20029;-75
2022/11/01 04:05:18;;;;;;;31.73;30.52;;;10.60;94.70;;;;;;4875011;29;20096;-75
2022/11/01 04:07:44;;;;;;;33.70;32.40;;;10.60;94.80;;;;;;4858331;29;20521;-76
2022/11/01 04:10:11;;;;;;;30.80;29.60;;;10.50;94.80;;;;;;4858471;29;20498;-77
2022/11/01 04:12:38;;;;;;;30.83;29.63;;;10.50;94.80;;;;;;4874709;29;20052;-77
2022/11/01 04:21:10;;;;;;;30.10;28.90;;;10.50;94.90;;;;;;4875257;29;20449;-78
2022/11/01 04:23:36;;;;;;;27.55;26.45;;;10.50;94.80;;;;;;4874880;29;20040;-73
2022/11/01 04:26:03;;;;;;;26.75;25.75;;;10.40;94.80;;;;;;4875382;29;20350;-73
2022/11/01 04:28:29;;;;;;;26.67;25.67;;;10.40;94.80;;;;;;4874857;29;20544;-75
2022/11/01 04:30:55;;;;;;;26.98;25.95;;;10.40;94.90;;;;;;4875355;29;20037;-75
2022/11/01 04:33:20;;;;;;;26.67;25.67;;;10.40;94.90;;;;;;4874811;29;20367;-75
2022/11/01 04:35:46;;;;;;;25.88;24.88;;;10.40;94.90;;;;;;4874764;29;20025;-75
2022/11/01 04:38:13;;;;;;;27.27;26.23;;;10.40;94.90;;;;;;4874931;29;20063;-75
2022/11/01 04:40:40;;;;;;;28.27;27.17;;;10.40;94.90;;;;;;4874694;29;20060;-75
2022/11/01 04:43:06;;;;;;;29.50;28.40;;;10.50;94.90;;;;;;4874578;29;20037;-75
2022/11/01 04:45:31;;;;;;;25.65;24.65;;;10.40;94.90;;;;;;4874743;29;20404;-75
2022/11/01 04:48:24;;;;;;;28.27;27.17;;;10.40;94.90;;;;;;4874573;29;20047;-73
2022/11/01 04:50:50;;;;;;;27.40;26.30;;;10.40;94.90;;;;;;4855193;29;20560;-73
2022/11/01 04:53:16;;;;;;;27.75;26.65;;;10.40;94.90;;;;;;4857441;29;20033;-74
2022/11/01 04:55:42;;;;;;;30.13;28.95;;;10.40;94.90;;;;;;4873761;29;20029;-73
2022/11/01 04:58:09;;;;;;;29.00;27.90;;;10.40;94.90;;;;;;4873840;29;20459;-73
2022/11/01 05:00:35;;;;;;;27.95;26.85;;;10.40;94.90;;;;;;4874030;29;20025;-73
2022/11/01 05:03:03;;;;;;;27.58;26.48;;;10.40;94.90;;;;;;4857465;29;20120;-74
2022/11/01 05:05:29;;;;;;;29.40;28.30;;;10.40;94.90;;;;;;4857260;29;20060;-73
2022/11/01 05:08:05;;;;;;;28.05;26.95;;;10.40;95.00;;;;;;4874127;29;20494;-73
2022/11/01 05:10:32;;;;;;;31.20;30.00;;;10.40;95.00;;;;;;4857437;29;20397;-73
2022/11/01 05:12:59;;;;;;;29.67;28.58;;;10.40;95.00;;;;;;4874130;29;20065;-73
2022/11/01 05:15:24;;;;;;;;;;;10.40;95.00;;;;;;4842630;29;20076;-73
2022/11/01 05:17:50;;;;;;;30.70;29.50;;;10.40;95.00;;;;;;4874287;29;19915;-74
2022/11/01 05:20:16;;;;;;;31.45;30.25;;;10.40;94.90;;;;;;4874106;29;20429;-74
2022/11/01 05:22:41;;;;;;;31.30;30.10;;;10.30;94.90;;;;;;4874008;29;20547;-73
2022/11/01 05:25:10;;;;;;;30.92;29.73;;;10.30;94.90;;;;;;4874096;29;20025;-73
2022/11/01 05:27:37;;;;;;;31.85;30.65;;;10.20;94.90;;;;;;4873986;29;20049;-73
2022/11/01 05:30:04;;;;;;;32.15;30.95;;;10.20;94.90;;;;;;4874073;29;20029;-73
2022/11/01 05:32:30;;;;;;;31.67;30.48;;;10.20;95.00;;;;;;4857216;29;20045;-73
2022/11/01 05:34:56;;;;;;;32.15;30.95;;;10.20;95.00;;;;;;4873851;29;20033;-73
2022/11/01 05:37:22;;;;;;;32.58;31.35;;;10.10;95.00;;;;;;4873914;29;20037;-73
2022/11/01 05:39:47;;;;;;;32.17;30.98;;;10.10;95.00;;;;;;4873820;29;20047;-74
2022/11/01 05:42:13;;;;;;;31.55;30.35;;;10.10;95.00;;;;;;4857324;29;20068;-73
2022/11/01 05:44:39;;;;;;;32.85;31.60;;;10.10;95.00;;;;;;4857003;29;20502;-74
2022/11/01 05:47:05;;;;;;;32.65;31.45;;;10.00;95.00;;;;;;4873913;29;20041;-73
2022/11/01 05:49:31;;;;;;;32.28;31.08;;;10.00;95.00;;;;;;4841555;29;20164;-73
2022/11/01 05:51:56;;;;;;;33.58;32.28;;;10.00;95.00;;;;;;4841861;29;20116;-73
2022/11/01 05:54:22;;;;;;;34.33;33.03;;;10.00;95.00;;;;;;4856849;29;20322;-73
2022/11/01 05:56:48;;;;;;;33.63;32.33;;;10.00;95.00;;;;;;4873700;29;20056;-73
2022/11/01 05:59:13;;;;;;;34.17;32.88;;;10.00;95.00;;;;;;4863971;29;20057;-73
2022/11/01 06:01:39;;;;;;;34.88;33.58;;;9.90;95.00;;;;;;4872333;29;20116;-74
2022/11/01 06:04:05;;;;;;;33.15;31.85;;;9.90;95.00;;;;;;4872340;29;20056;-73
2022/11/01 06:06:32;;;;;;;32.85;31.65;;;9.90;95.00;;;;;;4873665;29;20049;-73
2022/11/01 06:08:58;;;;;;;;;;;9.90;95.00;;;;;;4876955;29;20482;-73
2022/11/01 06:11:26;;;;;;;36.45;35.05;;;9.90;95.00;;;;;;4877304;29;19919;-73
2022/11/01 06:13:56;;;;;;;35.67;34.35;;;9.90;95.00;;;;;;4877117;29;20150;-73
2022/11/01 06:16:24;;;;;;;35.75;34.40;;;9.90;95.00;;;;;;4877066;29;20374;-73
2022/11/01 06:18:50;;;;;;;35.83;34.45;;;9.90;95.00;;;;;;4876933;29;20517;-73
2022/11/01 06:21:15;;;;;;;37.72;36.33;;;9.90;95.00;;;;;;4860218;29;20037;-73
2022/11/01 06:23:45;;;;;;;38.47;37.05;;;9.90;95.00;;;;;;4877052;29;20040;-78
2022/11/01 06:26:10;;;;;;;39.53;38.03;;;9.90;95.00;;;;;;4876901;29;20040;-77
2022/11/01 06:28:36;;;;;;;40.47;38.97;;;9.90;95.00;;;;;;4875351;29;20029;-78
2022/11/01 06:31:03;;;;;;;40.30;38.80;;;9.90;95.00;;;;;;4859889;29;20315;-78
2022/11/01 06:33:29;;;;;;;39.80;38.30;;;9.80;94.90;;;;;;4876464;29;20489;-78
2022/11/01 06:35:55;;;;;;;39.22;37.72;;;9.80;95.00;;;;;;4859425;29;20049;-78
2022/11/01 06:38:21;;;;;;;39.78;38.28;;;9.80;95.00;;;;;;4875628;29;20407;-77
2022/11/01 06:40:46;;;;;;;41.10;39.60;;;9.80;95.00;;;;;;4876975;29;20096;-78
2022/11/01 06:43:12;;;;;;;38.40;36.97;;;9.80;95.00;;;;;;4876638;29;20033;-78
2022/11/01 06:45:38;;;;;;;40.17;38.67;;;9.80;95.00;;;;;;4859674;29;20037;-78
2022/11/01 06:48:04;;;;;;;39.25;37.75;;;9.80;95.00;;;;;;4876621;29;20057;-78
2022/11/01 06:50:31;;;;;;;39.45;37.95;;;9.80;95.00;;;;;;4876370;29;20044;-77
2022/11/01 06:52:58;;;;;;;38.40;37.00;;;9.80;95.00;;;;;;4859803;29;20048;-78
2022/11/01 06:55:25;;;;;;;38.03;36.63;;;9.80;95.00;;;;;;4859404;29;20029;-76
2022/11/01 06:57:55;;;;;;;39.22;37.72;;;9.70;95.00;;;;;;4875987;29;20021;-77
2022/11/01 07:00:21;;;;;;;38.10;36.70;;;9.80;95.00;;;;;;4859960;29;20101;-76
2022/11/01 07:02:47;;;;;;;35.90;34.50;;;9.80;95.00;;;;;;4876506;29;20033;-77
2022/11/01 07:05:13;;;;;;;36.67;35.28;;;9.80;95.00;;;;;;4876594;29;20052;-76
2022/11/01 07:07:40;;;;;;;36.13;34.72;;;9.80;95.00;;;;;;4860450;29;20033;-78
2022/11/01 07:10:07;;;;;;;33.22;31.95;;;9.80;95.00;;;;;;4877108;29;20053;-77
2022/11/01 07:12:33;;;;;;;35.00;33.70;;;9.80;95.00;;;;;;4859993;29;20049;-77
2022/11/01 07:14:58;;;;;;;34.15;32.85;;;9.70;95.00;;;;;;4859000;29;20025;-78
2022/11/01 07:17:25;;;;;;;35.53;34.20;;;9.70;95.00;;;;;;4859181;29;20037;-78
2022/11/01 07:19:50;;;;;;;34.08;32.78;;;9.70;95.00;;;;;;4875259;29;20036;-77
2022/11/01 07:22:16;;;;;;;32.83;31.60;;;9.70;95.00;;;;;;4875618;29;20041;-73
2022/11/01 07:24:42;;;;;;;35.90;34.50;;;9.70;95.00;;;;;;4875666;29;20108;-73
2022/11/01 07:27:07;;;;;;;34.40;33.10;;;9.70;95.00;;;;;;4875569;29;20037;-72
2022/11/01 07:29:33;;;;;;;31.23;30.02;;;9.70;95.00;;;;;;4843407;29;20037;-72
2022/11/01 07:31:59;;;;;;;31.98;30.77;;;9.60;95.00;;;;;;4843649;29;20029;-73
2022/11/01 07:34:25;;;;;;;;;;;9.60;95.00;;;;;;4876051;29;20105;-71
2022/11/01 07:36:51;;;;;;;30.55;29.35;;;9.60;95.00;;;;;;4858575;29;19912;-73
2022/11/01 07:39:17;;;;;;;32.17;30.98;;;9.70;95.00;;;;;;4858340;29;20033;-73
2022/11/01 07:41:43;;;;;;;29.90;28.77;;;9.70;95.00;;;;;;4875174;29;20029;-73
2022/11/01 07:44:09;;;;;;;29.38;28.27;;;9.70;95.10;;;;;;4843148;29;20037;-73
2022/11/01 07:46:34;;;;;;;32.03;30.83;;;9.70;95.10;;;;;;4875347;29;20061;-72
2022/11/01 07:49:00;;;;;;;30.58;29.38;;;9.80;95.10;;;;;;4858716;29;20442;-73
2022/11/01 07:51:27;;;;;;;30.50;29.30;;;9.80;95.10;;;;;;4875171;29;20497;-72
2022/11/01 07:53:53;;;;;;;28.42;27.33;;;9.80;95.10;;;;;;4858474;29;20096;-72
2022/11/01 07:56:20;;;;;;;27.92;26.83;;;9.90;95.10;;;;;;4875049;29;20029;-73
2022/11/01 07:58:46;;;;;;;28.05;26.95;;;9.90;95.10;;;;;;4874789;29;20087;-73
2022/11/01 08:01:12;;;;;;;26.10;25.10;;;10.00;95.10;;;;;;4874644;29;20330;-73
2022/11/01 08:03:37;;;;;;;28.15;27.05;;;10.00;95.10;;;;;;4858277;29;20041;-73
2022/11/01 08:06:03;;;;;;;27.48;26.38;;;10.10;95.10;;;;;;4874976;29;20506;-73
2022/11/01 08:08:29;;;;;;;27.63;26.52;;;10.10;95.10;;;;;;4875070;29;20076;-73
2022/11/01 08:10:55;;;;;;;26.98;25.98;;;10.20;95.10;;;;;;4874989;29;20096;-73
2022/11/01 08:13:22;;;;;;;27.05;26.02;;;10.20;95.10;;;;;;4875086;29;20041;-74
2022/11/01 08:15:49;;;;;;;25.40;24.40;;;10.20;95.00;;;;;;4875964;29;20025;-73
2022/11/01 08:18:16;;;;;;;25.48;24.48;;;10.20;95.00;;;;;;4875029;29;20040;-72
2022/11/01 08:20:42;;;;;;;26.77;25.77;;;10.30;95.00;;;;;;4874752;29;20035;-74
2022/11/01 08:23:09;;;;;;;26.80;25.80;;;10.30;95.00;;;;;;4858030;29;20464;-74
2022/11/01 08:25:35;;;;;;;24.00;23.08;;;10.30;95.00;;;;;;4874585;29;20044;-73
2022/11/01 08:28:09;;;;;;;24.60;23.60;;;10.40;95.00;;;;;;4857769;29;20376;-73
2022/11/01 08:30:36;;;;;;;25.85;24.85;;;10.40;95.10;;;;;;4857019;29;20044;-73
2022/11/01 08:33:03;;;;;;;24.40;23.40;;;10.40;95.00;;;;;;4874408;29;20120;-73
2022/11/01 08:35:31;;;;;;;23.48;22.58;;;10.40;95.10;;;;;;4874677;29;20417;-75
2022/11/01 08:37:57;;;;;;;20.52;19.73;;;10.50;95.10;;;;;;4874101;29;20076;-75
2022/11/01 08:40:24;;;;;;;19.13;18.33;;;10.50;95.10;;;;;;4857672;29;20077;-73
2022/11/01 08:42:50;;;;;;;17.60;16.90;;;10.60;95.10;;;;;;4857396;29;20542;-75
2022/11/01 08:45:16;;;;;;;16.33;15.63;;;10.60;95.10;;;;;;4857359;29;20045;-70
2022/11/01 08:47:42;;;;;;;16.08;15.38;;;10.70;95.10;;;;;;4874596;29;20032;-75
2022/11/01 08:50:10;;;;;;;16.75;16.05;;;10.70;95.10;;;;;;4874282;29;20033;-75
2022/11/01 08:52:36;;;;;;;17.02;16.33;;;10.80;95.10;;;;;;4874247;29;20119;-75
2022/11/01 08:55:02;;;;;;;18.13;17.42;;;10.80;95.00;;;;;;4842208;29;20123;-75
2022/11/01 08:57:29;;;;;;;18.85;18.05;;;10.90;95.00;;;;;;4842400;29;20050;-75
2022/11/01 08:59:55;;;;;;;16.98;16.27;;;10.90;95.00;;;;;;4874360;29;20104;-75
2022/11/01 09:02:20;;;;;;;19.80;19.00;;;10.90;95.00;;;;;;4874346;29;20037;-75
2022/11/01 09:04:46;;;;;;;20.25;19.30;;;10.90;95.00;;;;;;4842404;29;20037;-75
2022/11/01 09:07:12;;;;;;;20.98;20.17;;;10.90;95.00;;;;;;4842447;29;20040;-74
2022/11/01 09:09:38;;;;;;;17.95;17.25;;;10.90;95.00;;;;;;4842221;29;20430;-75
2022/11/01 09:12:04;;;;;;;17.90;17.20;;;10.90;95.00;;;;;;4873881;29;20108;-76
2022/11/01 09:14:30;;;;;;;;;;;10.90;95.00;;;;;;4857507;29;20080;-76
2022/11/01 09:16:55;;;;;;;19.60;18.80;;;10.90;95.00;;;;;;4856928;29;20261;-76
2022/11/01 09:19:21;;;;;;;19.85;19.05;;;10.90;95.00;;;;;;4874225;29;20137;-76
2022/11/01 09:21:47;;;;;;;18.10;17.38;;;10.90;95.00;;;;;;4873541;29;20037;-76
2022/11/01 09:24:15;;;;;;;19.20;18.40;;;11.00;95.00;;;;;;4856566;29;20033;-73
2022/11/01 09:26:41;;;;;;;19.13;18.33;;;11.00;95.00;;;;;;4873785;29;20041;-73
2022/11/01 09:29:07;;;;;;;18.70;17.90;;;11.10;95.00;;;;;;4873685;29;20429;-74
2022/11/01 09:31:33;;;;;;;18.83;18.02;;;11.10;95.00;;;;;;4856740;29;20189;-73
2022/11/01 09:33:59;;;;;;;18.80;18.00;;;11.20;95.00;;;;;;4873500;29;20036;-74
2022/11/01 09:36:26;;;;;;;17.65;16.95;;;11.20;95.00;;;;;;4856791;29;20089;-73
2022/11/01 09:38:53;;;;;;;16.95;16.25;;;11.20;95.00;;;;;;4856695;29;20045;-73
2022/11/01 09:41:35;;;;;;;17.15;16.45;;;11.30;95.10;;;;;;4857461;29;20405;-72
2022/11/01 09:44:04;;;;;;;16.55;15.85;;;11.30;95.10;;;;;;4877380;29;20040;-73
2022/11/01 09:46:44;;;;;;;17.05;16.35;;;11.40;95.10;;;;;;4875868;29;20064;-73
2022/11/01 09:49:18;;;;;;;15.90;15.20;;;11.40;95.00;;;;;;4877859;29;20036;-73
2022/11/01 09:51:43;;;;;;;16.90;16.20;;;11.50;95.10;;;;;;4860087;29;20561;-73
2022/11/01 09:54:09;;;;;;;15.73;15.02;;;11.50;95.00;;;;;;4877006;29;20045;-74
2022/11/01 09:56:49;;;;;;;16.88;16.17;;;11.50;95.00;;;;;;4877841;29;20375;-78
2022/11/01 09:59:36;;;;;;;15.75;15.05;;;11.60;95.00;;;;;;4879078;29;20041;-77
2022/11/01 10:02:25;;;;;;;15.98;15.27;;;11.70;95.00;;;;;;4878684;29;20051;-77
2022/11/01 10:05:21;;;;;;;15.38;14.73;;;11.70;95.00;;;;;;4879026;29;20029;-77
2022/11/01 10:08:04;;;;;;;14.90;14.30;;;11.70;95.00;;;;;;4878652;29;20049;-71
2022/11/01 10:10:43;;;;;;;14.43;13.82;;;11.70;95.00;;;;;;4861961;29;20025;-74
2022/11/01 10:13:34;;;;;;;14.25;13.65;;;11.80;95.00;;;;;;4861751;29;20061;-74
2022/11/01 10:16:16;;;;;;;12.18;11.68;;;11.90;95.00;;;;;;4876599;29;20439;-75
2022/11/01 10:18:50;;;;;;;14.18;13.57;;;11.90;95.00;;;;;;4859448;29;20025;-74
2022/11/01 10:21:18;;;;;;;14.40;13.80;;;12.00;95.00;;;;;;4876187;29;20108;-75
2022/11/01 10:23:50;;;;;;;12.80;12.20;;;12.00;95.00;;;;;;4859717;29;20033;-74
2022/11/01 10:26:27;;;;;;;12.75;12.15;;;12.10;95.00;;;;;;4876753;29;20052;-77
2022/11/01 10:29:06;;;;;;;13.18;12.57;;;12.10;95.00;;;;;;4868553;29;20041;-74
2022/11/01 10:31:38;;;;;;;12.00;11.50;;;12.10;95.00;;;;;;4861445;29;20033;-77
2022/11/01 10:34:19;;;;;;;13.38;12.77;;;12.10;94.90;;;;;;4870170;29;20089;-78
2022/11/01 10:36:46;;;;;;;13.30;12.70;;;12.10;94.90;;;;;;4868794;29;20104;-78
2022/11/01 10:39:30;;;;;;;13.82;13.15;;;12.10;95.00;;;;;;4851439;29;20042;-74
2022/11/01 10:41:57;;;;;;;13.10;12.50;;;12.10;95.00;;;;;;4849205;29;20120;-75
2022/11/01 10:44:30;;;;;;;14.93;14.32;;;12.10;95.00;;;;;;4863924;29;20033;-75
2022/11/01 10:46:59;;;;;;;13.98;13.38;;;12.20;95.00;;;;;;4849081;29;20414;-75
2022/11/01 10:49:34;;;;;;;14.68;14.07;;;12.30;95.00;;;;;;4869236;29;20041;-76
2022/11/01 10:52:06;;;;;;;11.50;11.00;;;12.30;95.00;;;;;;4867459;29;20041;-75
2022/11/01 10:54:36;;;;;;;13.45;12.85;;;12.40;94.90;;;;;;4866988;29;20037;-75
2022/11/01 10:57:09;;;;;;;13.10;12.50;;;12.40;95.00;;;;;;4867415;29;20039;-76
2022/11/01 10:59:39;;;;;;;11.63;11.13;;;12.50;95.00;;;;;;4863520;29;20112;-77
2022/11/01 11:02:22;;;;;;;13.60;13.00;;;12.50;95.00;;;;;;4859031;29;20485;-79
2022/11/01 11:04:48;;;;;;;12.07;11.57;;;12.50;95.00;;;;;;4859028;29;20033;-79
2022/11/01 11:07:15;;;;;;;13.52;12.93;;;12.60;95.00;;;;;;4859223;29;20041;-78
2022/11/01 11:09:41;;;;;;;12.43;11.82;;;12.70;95.10;;;;;;4859397;29;20351;-78
2022/11/01 11:12:20;;;;;;;12.10;11.60;;;12.80;95.10;;;;;;4858892;29;20089;-77
2022/11/01 11:14:50;;;;;;;10.35;9.85;;;12.90;95.10;;;;;;4858832;29;20075;-77
2022/11/01 11:17:23;;;;;;;11.25;10.75;;;13.00;95.10;;;;;;4858888;29;20134;-79
2022/11/01 11:19:52;;;;;;;11.10;10.60;;;13.10;95.10;;;;;;4842150;29;20080;-78
2022/11/01 11:22:21;;;;;;;11.00;10.50;;;13.20;95.10;;;;;;4858838;29;20029;-76
2022/11/01 11:24:48;;;;;;;10.00;9.50;;;13.30;95.10;;;;;;4842024;29;20029;-77
2022/11/01 11:27:26;;;;;;;9.20;8.80;;;13.40;95.00;;;;;;4858330;29;20112;-78
2022/11/01 11:30:00;;;;;;;10.13;9.63;;;13.50;95.10;;;;;;4858448;29;20029;-77
2022/11/01 11:32:32;;;;;;;9.85;9.35;;;13.70;95.10;;;;;;4858258;29;20466;-78
2022/11/01 11:35:05;;;;;;;9.70;9.20;;;13.70;95.10;;;;;;4858598;29;20484;-72
2022/11/01 11:37:33;;;;;;;9.60;9.10;;;13.90;95.10;;;;;;4858372;29;20042;-75
2022/11/01 11:40:20;;;;;;;9.35;8.88;;;14.00;95.10;;;;;;4842309;29;20394;-78
2022/11/01 11:42:48;;;;;;;8.07;7.68;;;14.10;95.20;;;;;;4857689;29;20290;-77
2022/11/01 11:45:26;;;;;;;7.60;7.20;;;14.30;95.10;;;;;;4857789;29;20029;-78
2022/11/01 11:47:53;;;;;;;6.63;6.22;;;14.40;95.10;;;;;;4857795;29;20475;-78
2022/11/01 11:50:19;;;;;;;6.20;5.90;;;14.50;95.20;;;;;;4841172;29;20120;-77
2022/11/01 11:52:55;;;;;;;5.15;4.85;;;14.80;95.40;;;;;;4857492;29;20108;-75
2022/11/01 11:55:40;;;;;;;4.23;3.93;;;15.20;95.60;;;;;;4857802;29;20034;-77
2022/11/01 11:58:20;;;;;;;3.58;3.28;;;15.70;95.70;;;;;;4857752;29;20056;-77
2022/11/01 12:00:50;;;;;;;2.17;1.98;;;16.20;95.90;;;;;;4867926;29;20119;-76
2022/11/01 12:03:17;;;;;;;0.68;0.68;;;16.90;96.00;;;;;;4876387;29;20120;-73
2022/11/01 12:06:00;;;;;;;0.40;0.40;;;17.50;96.00;;;;;;4851218;29;20036;-77
2022/11/01 12:08:36;;;;;;;0.20;0.20;;;17.80;95.50;;;;;;4866850;29;20027;-76
2022/11/01 12:11:02;;;;;;;0.20;0.20;;;17.80;95.20;;;;;;4869500;29;20037;-76
2022/11/01 12:13:36;;;;;;;0.20;0.20;;;17.90;95.30;;;;;;4875830;29;20479;-74
2022/11/01 12:16:25;;;;;;;0.10;0.10;;;18.00;95.40;;;;;;4875957;29;20045;-74
2022/11/01 12:18:52;;;;;;;0.10;0.10;;;18.10;95.40;;;;;;4868370;29;20060;-78
2022/11/01 12:21:26;;;;;;;0.00;0.00;;;18.30;95.60;;;;;;4858616;29;20033;-77
2022/11/01 12:24:00;;;;;;;0.10;0.10;;;18.50;95.40;;;;;;4875336;29;20025;-74
2022/11/01 12:26:28;;;;;;;0.10;0.10;;;18.50;95.40;;;;;;4875504;29;20036;-77
2022/11/01 12:29:06;;;;;;;0.00;0.00;;;18.70;95.90;;;;;;4876180;29;20029;-77
2022/11/01 12:31:32;;;;;;;0.00;0.00;;;18.90;95.90;;;;;;4876348;29;20116;-75
2022/11/01 12:34:00;;;;;;;;;;;19.20;95.90;;;;;;4875974;29;20060;-78
2022/11/01 12:36:33;;;;;;;0.00;0.00;;;19.30;95.70;;;;;;4860102;29;20354;-76
2022/11/01 12:39:31;;;;;;;0.00;0.00;;;19.30;95.60;;;;;;4875988;29;20121;-78
2022/11/01 12:41:59;;;;;;;0.00;0.00;;;19.10;95.40;;;;;;4836497;29;20037;-76
2022/11/01 12:44:41;;;;;;;0.00;0.00;;;18.90;95.30;;;;;;4875339;29;20044;-78
2022/11/01 12:47:37;;;;;;;0.00;0.00;;;18.50;95.10;;;;;;4875578;29;20032;-77
2022/11/01 12:50:26;;;;;;;0.00;0.00;;;18.00;95.00;;;;;;4875401;29;20036;-77
2022/11/01 12:52:59;;;;;;;0.00;0.00;;;17.50;95.00;;;;;;4858617;29;20033;-78
2022/11/01 12:55:35;;;;;;;0.00;0.00;;;16.90;94.90;;;;;;4876301;29;20025;-77